createdAt,value
2022-10-02T10:51:03.342Z,10.07
2022-10-02T10:54:02.044Z,9.05
2022-10-02T10:57:19.157Z,12.63
2022-10-02T11:00:30.455Z,16.13
2022-10-02T11:03:29.469Z,9.27
2022-10-02T11:06:30.066Z,12.52
2022-10-02T11:09:41.205Z,12.63
2022-10-02T11:12:45.491Z,12.68
2022-10-02T11:15:43.100Z,9.93
2022-10-02T11:18:38.738Z,4.65
2022-10-02T11:21:42.944Z,8.35
2022-10-02T11:24:42.729Z,9.40
2022-10-02T11:30:40.834Z,12.95
2022-10-02T11:33:33.647Z,12.77
2022-10-02T11:36:52.603Z,11.05
2022-10-02T11:40:02.642Z,14.35
2022-10-02T11:43:30.041Z,14.57
2022-10-02T11:46:28.104Z,15.52
2022-10-02T11:49:41.668Z,15.52
2022-10-02T11:52:44.724Z,15.80
2022-10-02T11:55:36.791Z,13.40
2022-10-02T11:59:00.511Z,16.60
2022-10-02T12:02:15.655Z,12.45
2022-10-02T12:05:33.932Z,15.02
2022-10-02T12:08:50.419Z,12.65
2022-10-02T12:11:51.112Z,10.80
2022-10-02T12:14:43.685Z,13.00
2022-10-02T12:17:32.942Z,18.30
2022-10-02T12:21:01.971Z,12.67
2022-10-02T12:24:07.675Z,8.75
2022-10-02T12:27:04.202Z,10.90
2022-10-02T12:30:08.027Z,9.77
2022-10-02T12:33:21.383Z,8.35
2022-10-02T12:36:25.397Z,13.95
2022-10-02T12:39:46.718Z,10.48
2022-10-02T12:42:35.229Z,10.55
2022-10-02T12:45:23.725Z,10.27
2022-10-02T12:48:18.431Z,9.07
2022-10-02T12:51:29.614Z,13.52
2022-10-02T12:54:33.936Z,10.07
2022-10-02T12:57:58.949Z,9.13
2022-10-02T13:01:22.104Z,8.10
2022-10-02T13:04:38.164Z,9.05
2022-10-02T13:07:45.555Z,8.25
2022-10-02T13:10:35.322Z,9.55
2022-10-02T13:13:57.148Z,7.38
2022-10-02T13:16:51.146Z,9.68
2022-10-02T13:19:36.670Z,10.30
2022-10-02T13:22:34.763Z,9.07
2022-10-02T13:25:26.426Z,7.50
2022-10-02T13:28:49.912Z,5.82
2022-10-02T13:32:08.527Z,7.22
2022-10-02T13:35:18.670Z,7.88
2022-10-02T13:38:26.769Z,6.07
2022-10-02T13:41:26.957Z,7.97
2022-10-02T13:44:24.655Z,7.90
2022-10-02T13:47:39.347Z,11.18
2022-10-02T13:50:34.738Z,8.63
2022-10-02T13:53:26.607Z,6.70
2022-10-02T13:56:34.599Z,6.85
2022-10-02T13:59:49.709Z,6.00
2022-10-02T14:02:44.838Z,8.45
2022-10-02T14:05:45.519Z,5.97
2022-10-02T14:08:42.527Z,8.43
2022-10-02T14:12:09.412Z,6.30
2022-10-02T14:15:04.030Z,9.13
2022-10-02T14:18:11.007Z,6.45
2022-10-02T14:21:30.954Z,7.75
2022-10-02T14:25:00.749Z,8.63
2022-10-02T14:27:57.287Z,9.38
2022-10-02T14:31:08.053Z,7.95
2022-10-02T14:34:31.557Z,8.20
2022-10-02T14:37:28.841Z,7.38
2022-10-02T14:40:19.634Z,7.03
2022-10-02T14:43:04.987Z,6.80
2022-10-02T14:45:56.638Z,5.38
2022-10-02T14:48:57.582Z,6.15
2022-10-02T14:52:07.531Z,2.47
2022-10-02T14:54:53.199Z,6.22
2022-10-02T14:57:57.985Z,5.15
2022-10-02T15:01:23.141Z,7.15
2022-10-02T15:04:22.546Z,5.78
2022-10-02T15:07:14.794Z,5.88
2022-10-02T15:10:16.463Z,6.13
2022-10-02T15:13:10.288Z,7.20
2022-10-02T15:16:30.193Z,5.18
2022-10-02T15:19:25.648Z,9.30
2022-10-02T15:22:22.050Z,5.65
2022-10-02T15:25:23.540Z,10.07
2022-10-02T15:28:42.316Z,3.97
2022-10-02T15:31:44.342Z,7.70
2022-10-02T15:34:46.600Z,7.22
2022-10-02T15:37:42.392Z,10.10
2022-10-02T15:41:05.943Z,7.05
2022-10-02T15:43:51.204Z,8.43
2022-10-02T15:47:15.392Z,8.82
2022-10-02T15:50:27.857Z,7.72
2022-10-02T15:53:31.679Z,10.35
2022-10-02T15:56:30.179Z,9.93
2022-10-02T15:59:31.398Z,4.93
2022-10-02T16:02:39.173Z,8.45
2022-10-02T16:05:46.327Z,9.38
2022-10-02T16:09:04.854Z,10.68
2022-10-02T16:12:38.656Z,6.97
2022-10-02T16:15:31.823Z,10.85
2022-10-02T16:18:17.354Z,6.40
2022-10-02T16:21:22.030Z,9.40
2022-10-02T16:24:40.840Z,8.85
2022-10-02T16:28:09.103Z,10.38
2022-10-02T16:31:00.354Z,11.77
2022-10-02T16:33:56.854Z,13.05
2022-10-02T16:36:59.958Z,7.00
2022-10-02T16:39:57.783Z,13.52
2022-10-02T16:43:14.362Z,12.82
2022-10-02T16:46:00.334Z,12.43
2022-10-02T16:48:59.053Z,8.68
2022-10-02T16:51:50.672Z,12.77
2022-10-02T16:54:56.666Z,8.43
2022-10-02T16:57:42.247Z,7.90
2022-10-02T17:00:37.709Z,5.75
2022-10-02T17:03:45.448Z,11.90
2022-10-02T17:06:40.541Z,11.55
2022-10-02T17:09:41.855Z,11.68
2022-10-02T17:12:58.213Z,7.38
2022-10-02T17:15:58.960Z,10.73
2022-10-02T17:18:52.835Z,10.27
2022-10-02T17:21:38.320Z,13.57
2022-10-02T17:24:33.061Z,10.77
2022-10-02T17:27:33.866Z,12.70
2022-10-02T17:30:30.131Z,8.35
2022-10-02T17:33:23.062Z,15.43
2022-10-02T17:36:33.082Z,11.40
2022-10-02T17:39:36.799Z,10.80
2022-10-02T17:42:42.095Z,11.30
2022-10-02T17:45:45.699Z,10.40
2022-10-02T17:49:06.471Z,13.85
2022-10-02T17:51:54.397Z,21.20
2022-10-02T17:55:27.120Z,10.55
2022-10-02T17:58:35.479Z,10.93
2022-10-02T18:01:52.958Z,10.13
2022-10-02T18:04:54.429Z,10.48
2022-10-02T18:08:07.279Z,7.90
2022-10-02T18:11:05.719Z,12.45
2022-10-02T18:14:13.679Z,12.75
2022-10-02T18:17:41.824Z,9.40
2022-10-02T18:20:35.410Z,12.90
2022-10-02T18:23:43.762Z,12.20
2022-10-02T18:26:47.529Z,14.73
2022-10-02T18:30:01.010Z,11.77
2022-10-02T18:33:05.125Z,11.10
2022-10-02T18:36:02.631Z,14.85
2022-10-02T18:38:51.203Z,13.18
2022-10-02T18:41:56.627Z,14.23
2022-10-02T18:44:58.462Z,13.93
2022-10-02T18:48:03.104Z,15.65
2022-10-02T18:51:04.191Z,15.02
2022-10-02T18:54:07.934Z,19.80
2022-10-02T18:57:08.940Z,13.48
2022-10-02T19:00:13.547Z,13.73
2022-10-02T19:03:01.704Z,14.63
2022-10-02T19:06:09.570Z,11.68
2022-10-02T19:09:07.189Z,10.45
2022-10-02T19:12:08.980Z,24.02
2022-10-02T19:14:56.495Z,17.85
2022-10-02T19:17:56.309Z,11.88
2022-10-02T19:20:51.195Z,16.98
2022-10-02T19:24:01.498Z,13.50
2022-10-02T19:26:52.117Z,14.35
2022-10-02T19:29:54.429Z,12.00
2022-10-02T19:32:41.367Z,14.85
2022-10-02T19:35:42.547Z,13.77
2022-10-02T19:38:32.983Z,14.82
2022-10-02T19:41:18.805Z,20.70
2022-10-02T19:44:11.713Z,14.32
2022-10-02T19:47:01.728Z,13.02
2022-10-02T19:49:49.222Z,13.80
2022-10-02T19:52:37.876Z,15.57
2022-10-02T19:55:31.543Z,16.38
2022-10-02T19:58:22.500Z,16.60
2022-10-02T20:01:19.299Z,15.30
2022-10-02T20:04:06.138Z,13.38
2022-10-02T20:07:00.002Z,17.77
2022-10-02T20:09:52.307Z,11.38
2022-10-02T20:12:46.398Z,14.45
2022-10-02T20:16:07.619Z,15.05
2022-10-02T20:18:53.544Z,14.20
2022-10-02T20:21:47.406Z,14.65
2022-10-02T20:24:45.309Z,21.40
2022-10-02T20:27:44.010Z,17.00
2022-10-02T20:30:41.726Z,16.20
2022-10-02T20:33:40.436Z,19.35
2022-10-02T20:36:38.589Z,15.38
2022-10-02T20:39:33.222Z,20.40
2022-10-02T20:42:25.729Z,16.10
2022-10-02T20:45:13.378Z,16.63
2022-10-02T20:48:55.679Z,20.55
2022-10-02T20:51:53.051Z,17.98
2022-10-02T20:55:27.010Z,19.88
2022-10-02T20:58:43.257Z,17.17
2022-10-02T21:01:37.407Z,21.88
2022-10-02T21:04:51.088Z,19.58
2022-10-02T21:07:39.288Z,15.15
2022-10-02T21:10:30.869Z,18.95
2022-10-02T21:13:16.492Z,22.17
2022-10-02T21:16:14.004Z,15.55
2022-10-02T21:19:22.158Z,18.48
2022-10-02T21:22:59.899Z,16.25
2022-10-02T21:25:54.820Z,17.88
2022-10-02T21:29:08.966Z,16.70
2022-10-02T21:32:00.699Z,18.13
2022-10-02T21:34:52.418Z,19.13
2022-10-02T21:38:00.174Z,17.08
2022-10-02T21:41:37.115Z,23.30
2022-10-02T21:44:47.205Z,14.50
2022-10-02T21:47:53.665Z,18.48
2022-10-02T21:51:38.293Z,26.92
2022-10-02T21:54:44.261Z,22.83
2022-10-02T21:57:36.828Z,15.63
2022-10-02T22:00:25.781Z,27.42
2022-10-02T22:03:36.900Z,20.23
2022-10-02T22:06:56.120Z,14.70
2022-10-02T22:09:47.405Z,23.88
2022-10-02T22:12:54.640Z,21.27
2022-10-02T22:16:08.156Z,18.85
2022-10-02T22:19:16.578Z,25.80
2022-10-02T22:22:18.239Z,20.15
2022-10-02T22:25:45.198Z,22.83
2022-10-02T22:28:36.734Z,27.27
2022-10-02T22:31:51.476Z,22.38
2022-10-02T22:34:51.623Z,61.17
2022-10-02T22:37:58.656Z,32.67
2022-10-02T22:40:52.155Z,30.05
2022-10-02T22:44:02.618Z,33.17
2022-10-02T22:46:57.020Z,16.88
2022-10-02T22:49:48.826Z,28.98
2022-10-02T22:52:47.571Z,31.67
2022-10-02T22:55:50.145Z,25.20
2022-10-02T22:58:47.694Z,29.63
2022-10-02T23:01:59.246Z,18.95
2022-10-02T23:04:55.170Z,36.35
2022-10-02T23:07:46.543Z,17.75
2022-10-02T23:10:46.568Z,21.98
2022-10-02T23:13:35.991Z,24.15
2022-10-02T23:16:56.295Z,21.30
2022-10-02T23:20:02.382Z,22.90
2022-10-02T23:22:55.013Z,25.95
2022-10-02T23:25:49.812Z,23.63
2022-10-02T23:28:52.170Z,24.52
2022-10-02T23:31:53.838Z,27.15
2022-10-02T23:34:51.189Z,24.90
2022-10-02T23:37:50.109Z,29.08
2022-10-02T23:41:32.706Z,24.05
2022-10-02T23:44:40.628Z,30.88
2022-10-02T23:47:36.767Z,25.80
2022-10-02T23:50:28.356Z,25.25
2022-10-02T23:53:35.617Z,28.60
2022-10-02T23:56:40.160Z,22.65
2022-10-02T23:59:32.728Z,23.10
